sensor_id;sensor_type;location;lat;lon;timestamp;pressure;altitude;pressure_sealevel;temperature;humidity
12868;BME280;33517;49.866;8.320;2023-07-13T00:02:11;100398.75;;;18.84;55.74
12868;BME280;33517;49.866;8.320;2023-07-13T00:05:05;100393.75;;;18.69;56.23
12868;BME280;33517;49.866;8.320;2023-07-13T00:07:57;100394.28;;;18.53;57.28
12868;BME280;33517;49.866;8.320;2023-07-13T00:10:51;100404.34;;;18.51;57.18
12868;BME280;33517;49.866;8.320;2023-07-13T00:13:45;100413.81;;;18.40;57.34
12868;BME280;33517;49.866;8.320;2023-07-13T00:16:38;100408.63;;;18.21;57.08
12868;BME280;33517;49.866;8.320;2023-07-13T00:19:30;100416.84;;;18.13;57.88
12868;BME280;33517;49.866;8.320;2023-07-13T00:22:24;100415.03;;;18.07;58.35
12868;BME280;33517;49.866;8.320;2023-07-13T00:25:17;100406.81;;;18.15;58.96
12868;BME280;33517;49.866;8.320;2023-07-13T00:28:09;100411.59;;;18.06;58.88
12868;BME280;33517;49.866;8.320;2023-07-13T00:31:01;100407.09;;;18.00;58.83
12868;BME280;33517;49.866;8.320;2023-07-13T00:33:53;100409.56;;;18.02;59.60
12868;BME280;33517;49.866;8.320;2023-07-13T00:36:45;100411.47;;;17.88;59.03
12868;BME280;33517;49.866;8.320;2023-07-13T00:39:38;100416.63;;;17.83;59.21
12868;BME280;33517;49.866;8.320;2023-07-13T00:42:30;100415.47;;;17.66;59.17
12868;BME280;33517;49.866;8.320;2023-07-13T00:48:53;100415.31;;;17.35;59.56
12868;BME280;33517;49.866;8.320;2023-07-13T00:51:48;100422.06;;;17.24;60.04
12868;BME280;33517;49.866;8.320;2023-07-13T00:54:45;100429.03;;;17.19;60.53
12868;BME280;33517;49.866;8.320;2023-07-13T00:57:37;100431.91;;;17.17;60.76
12868;BME280;33517;49.866;8.320;2023-07-13T01:00:30;100426.41;;;17.12;62.15
12868;BME280;33517;49.866;8.320;2023-07-13T01:03:22;100429.88;;;17.26;62.15
12868;BME280;33517;49.866;8.320;2023-07-13T01:06:14;100430.94;;;17.82;62.61
12868;BME280;33517;49.866;8.320;2023-07-13T01:09:08;100421.31;;;18.25;61.43
12868;BME280;33517;49.866;8.320;2023-07-13T01:12:02;100428.63;;;18.30;60.99
12868;BME280;33517;49.866;8.320;2023-07-13T01:14:57;100433.59;;;18.26;61.80
12868;BME280;33517;49.866;8.320;2023-07-13T01:17:50;100431.13;;;18.31;62.44
12868;BME280;33517;49.866;8.320;2023-07-13T01:20:50;100428.25;;;18.26;61.08
12868;BME280;33517;49.866;8.320;2023-07-13T01:23:42;100443.50;;;18.13;61.07
12868;BME280;33517;49.866;8.320;2023-07-13T01:26:35;100434.59;;;18.63;62.72
12868;BME280;33517;49.866;8.320;2023-07-13T01:29:27;100432.91;;;18.93;61.77
12868;BME280;33517;49.866;8.320;2023-07-13T01:32:20;100434.63;;;19.30;60.92
12868;BME280;33517;49.866;8.320;2023-07-13T01:35:14;100439.63;;;19.45;60.26
12868;BME280;33517;49.866;8.320;2023-07-13T01:38:09;100433.97;;;19.35;59.51
12868;BME280;33517;49.866;8.320;2023-07-13T01:41:01;100431.22;;;18.99;60.17
12868;BME280;33517;49.866;8.320;2023-07-13T01:43:53;100433.72;;;19.18;60.70
12868;BME280;33517;49.866;8.320;2023-07-13T01:46:45;100439.41;;;19.04;59.76
12868;BME280;33517;49.866;8.320;2023-07-13T01:49:37;100442.38;;;18.89;59.94
12868;BME280;33517;49.866;8.320;2023-07-13T01:52:29;100442.09;;;18.48;60.05
12868;BME280;33517;49.866;8.320;2023-07-13T01:55:22;100433.72;;;18.45;61.37
12868;BME280;33517;49.866;8.320;2023-07-13T01:58:14;100438.03;;;18.39;60.82
12868;BME280;33517;49.866;8.320;2023-07-13T02:01:06;100434.19;;;18.28;60.28
12868;BME280;33517;49.866;8.320;2023-07-13T02:03:58;100445.16;;;18.07;61.19
12868;BME280;33517;49.866;8.320;2023-07-13T02:06:50;100445.22;;;18.01;62.61
12868;BME280;33517;49.866;8.320;2023-07-13T02:09:41;100442.63;;;18.57;62.68
12868;BME280;33517;49.866;8.320;2023-07-13T02:12:35;100447.69;;;18.65;61.31
12868;BME280;33517;49.866;8.320;2023-07-13T02:15:27;100447.69;;;18.65;61.44
12868;BME280;33517;49.866;8.320;2023-07-13T02:18:19;100451.44;;;18.57;61.74
12868;BME280;33517;49.866;8.320;2023-07-13T02:21:11;100445.59;;;18.73;61.81
12868;BME280;33517;49.866;8.320;2023-07-13T02:24:04;100445.75;;;18.78;61.09
12868;BME280;33517;49.866;8.320;2023-07-13T02:26:55;100443.22;;;18.59;60.49
12868;BME280;33517;49.866;8.320;2023-07-13T02:29:49;100433.78;;;18.63;61.09
12868;BME280;33517;49.866;8.320;2023-07-13T02:32:41;100445.72;;;18.60;60.47
12868;BME280;33517;49.866;8.320;2023-07-13T02:35:34;100450.53;;;18.38;59.52
12868;BME280;33517;49.866;8.320;2023-07-13T02:38:26;100442.47;;;18.52;61.55
12868;BME280;33517;49.866;8.320;2023-07-13T02:41:18;100446.56;;;18.54;59.95
12868;BME280;33517;49.866;8.320;2023-07-13T02:44:12;100453.28;;;18.25;59.93
12868;BME280;33517;49.866;8.320;2023-07-13T02:47:06;100456.53;;;18.27;61.11
12868;BME280;33517;49.866;8.320;2023-07-13T02:49:58;100461.59;;;18.35;62.13
12868;BME280;33517;49.866;8.320;2023-07-13T02:52:49;100459.22;;;18.21;62.70
12868;BME280;33517;49.866;8.320;2023-07-13T02:55:41;100462.66;;;18.28;62.76
12868;BME280;33517;49.866;8.320;2023-07-13T02:58:37;100465.47;;;18.02;62.15
12868;BME280;33517;49.866;8.320;2023-07-13T03:01:30;100470.81;;;18.02;63.68
12868;BME280;33517;49.866;8.320;2023-07-13T03:04:24;100466.44;;;18.14;63.95
12868;BME280;33517;49.866;8.320;2023-07-13T03:07:16;100470.88;;;18.26;64.39
12868;BME280;33517;49.866;8.320;2023-07-13T03:10:08;100475.56;;;18.31;64.09
12868;BME280;33517;49.866;8.320;2023-07-13T03:13:01;100473.63;;;18.13;64.22
12868;BME280;33517;49.866;8.320;2023-07-13T03:15:53;100471.75;;;17.63;63.34
12868;BME280;33517;49.866;8.320;2023-07-13T03:18:45;100472.19;;;17.34;64.15
12868;BME280;33517;49.866;8.320;2023-07-13T03:21:39;100476.50;;;17.28;64.24
12868;BME280;33517;49.866;8.320;2023-07-13T03:24:32;100472.00;;;17.35;64.64
12868;BME280;33517;49.866;8.320;2023-07-13T03:27:24;100480.56;;;17.57;65.43
12868;BME280;33517;49.866;8.320;2023-07-13T03:30:16;100482.63;;;17.55;65.19
12868;BME280;33517;49.866;8.320;2023-07-13T03:33:08;100486.53;;;17.39;64.51
12868;BME280;33517;49.866;8.320;2023-07-13T03:36:00;100496.38;;;17.26;64.99
12868;BME280;33517;49.866;8.320;2023-07-13T03:38:55;100503.91;;;17.29;65.97
12868;BME280;33517;49.866;8.320;2023-07-13T03:41:47;100502.31;;;17.28;66.44
12868;BME280;33517;49.866;8.320;2023-07-13T03:44:39;100501.91;;;17.05;65.56
12868;BME280;33517;49.866;8.320;2023-07-13T03:47:31;100503.31;;;16.81;65.71
12868;BME280;33517;49.866;8.320;2023-07-13T03:50:23;100505.09;;;16.54;65.41
12868;BME280;33517;49.866;8.320;2023-07-13T03:53:15;100502.81;;;16.45;66.38
12868;BME280;33517;49.866;8.320;2023-07-13T03:56:09;100512.47;;;16.66;67.00
12868;BME280;33517;49.866;8.320;2023-07-13T03:59:01;100521.91;;;16.68;66.63
12868;BME280;33517;49.866;8.320;2023-07-13T04:01:53;100513.91;;;16.75;66.32
12868;BME280;33517;49.866;8.320;2023-07-13T04:04:45;100508.59;;;16.62;65.86
12868;BME280;33517;49.866;8.320;2023-07-13T04:07:37;100515.34;;;16.77;67.25
12868;BME280;33517;49.866;8.320;2023-07-13T04:10:29;100528.69;;;17.10;67.23
12868;BME280;33517;49.866;8.320;2023-07-13T04:13:22;100520.06;;;17.34;67.63
12868;BME280;33517;49.866;8.320;2023-07-13T04:16:15;100513.75;;;17.35;67.55
12868;BME280;33517;49.866;8.320;2023-07-13T04:19:08;100529.50;;;17.49;67.10
12868;BME280;33517;49.866;8.320;2023-07-13T04:22:00;100528.72;;;17.49;66.93
12868;BME280;33517;49.866;8.320;2023-07-13T04:24:52;100522.31;;;17.43;66.22
12868;BME280;33517;49.866;8.320;2023-07-13T04:27:44;100530.91;;;17.45;65.99
12868;BME280;33517;49.866;8.320;2023-07-13T04:30:37;100539.13;;;17.31;65.36
12868;BME280;33517;49.866;8.320;2023-07-13T04:33:29;100535.03;;;17.35;65.60
12868;BME280;33517;49.866;8.320;2023-07-13T04:36:21;100536.88;;;17.54;66.41
12868;BME280;33517;49.866;8.320;2023-07-13T04:39:13;100532.75;;;17.65;65.44
12868;BME280;33517;49.866;8.320;2023-07-13T04:42:05;100532.13;;;17.76;64.45
12868;BME280;33517;49.866;8.320;2023-07-13T04:44:57;100530.25;;;17.89;64.48
12868;BME280;33517;49.866;8.320;2023-07-13T04:47:50;100528.81;;;17.87;64.17
12868;BME280;33517;49.866;8.320;2023-07-13T04:50:45;100528.44;;;17.77;64.06
12868;BME280;33517;49.866;8.320;2023-07-13T04:53:36;100526.81;;;17.76;64.61
12868;BME280;33517;49.866;8.320;2023-07-13T04:56:28;100533.22;;;18.12;64.43
12868;BME280;33517;49.866;8.320;2023-07-13T04:59:20;100527.59;;;18.78;62.53
12868;BME280;33517;49.866;8.320;2023-07-13T05:02:12;100540.81;;;19.22;62.41
12868;BME280;33517;49.866;8.320;2023-07-13T05:05:07;100537.09;;;20.08;61.57
12868;BME280;33517;49.866;8.320;2023-07-13T05:07:59;100535.16;;;20.34;60.67
12868;BME280;33517;49.866;8.320;2023-07-13T05:10:51;100527.03;;;20.29;59.88
12868;BME280;33517;49.866;8.320;2023-07-13T05:13:43;100524.72;;;20.32;59.14
12868;BME280;33517;49.866;8.320;2023-07-13T05:16:34;100533.91;;;20.36;59.53
12868;BME280;33517;49.866;8.320;2023-07-13T05:19:26;100533.25;;;20.23;58.15
12868;BME280;33517;49.866;8.320;2023-07-13T05:22:20;100536.22;;;20.62;58.38
12868;BME280;33517;49.866;8.320;2023-07-13T05:25:11;100537.44;;;21.42;59.21
12868;BME280;33517;49.866;8.320;2023-07-13T05:28:03;100546.53;;;21.41;55.98
12868;BME280;33517;49.866;8.320;2023-07-13T05:30:55;100541.75;;;21.78;55.93
12868;BME280;33517;49.866;8.320;2023-07-13T05:33:47;100549.31;;;21.46;55.47
12868;BME280;33517;49.866;8.320;2023-07-13T05:36:39;100547.91;;;21.44;55.39
12868;BME280;33517;49.866;8.320;2023-07-13T05:39:33;100546.19;;;21.38;54.82
12868;BME280;33517;49.866;8.320;2023-07-13T05:42:24;100546.41;;;21.36;54.11
12868;BME280;33517;49.866;8.320;2023-07-13T05:45:16;100544.53;;;21.25;55.52
12868;BME280;33517;49.866;8.320;2023-07-13T05:48:08;100536.84;;;21.29;53.95
12868;BME280;33517;49.866;8.320;2023-07-13T05:51:01;100539.44;;;21.70;53.04
12868;BME280;33517;49.866;8.320;2023-07-13T05:53:53;100544.31;;;21.73;53.62
12868;BME280;33517;49.866;8.320;2023-07-13T05:56:46;100539.47;;;22.21;53.62
12868;BME280;33517;49.866;8.320;2023-07-13T05:59:38;100549.28;;;22.83;50.86
12868;BME280;33517;49.866;8.320;2023-07-13T06:02:30;100553.41;;;23.19;50.64
12868;BME280;33517;49.866;8.320;2023-07-13T06:05:22;100545.41;;;23.24;50.05
12868;BME280;33517;49.866;8.320;2023-07-13T06:08:14;100547.16;;;23.30;50.06
12868;BME280;33517;49.866;8.320;2023-07-13T06:11:07;100551.06;;;23.56;48.85
12868;BME280;33517;49.866;8.320;2023-07-13T06:14:00;100555.66;;;23.60;47.71
12868;BME280;33517;49.866;8.320;2023-07-13T06:16:52;100559.34;;;23.71;47.88
12868;BME280;33517;49.866;8.320;2023-07-13T06:19:45;100561.97;;;23.88;47.18
12868;BME280;33517;49.866;8.320;2023-07-13T06:22:37;100559.31;;;24.31;46.92
12868;BME280;33517;49.866;8.320;2023-07-13T06:25:29;100566.66;;;26.35;43.17
12868;BME280;33517;49.866;8.320;2023-07-13T06:28:22;100580.94;;;29.35;37.26
12868;BME280;33517;49.866;8.320;2023-07-13T06:31:15;100581.41;;;30.83;33.20
12868;BME280;33517;49.866;8.320;2023-07-13T06:34:07;100588.22;;;31.18;32.45
12868;BME280;33517;49.866;8.320;2023-07-13T06:36:59;100601.31;;;31.81;31.82
12868;BME280;33517;49.866;8.320;2023-07-13T06:39:51;100599.75;;;32.07;31.41
12868;BME280;33517;49.866;8.320;2023-07-13T06:42:43;100599.75;;;32.47;30.27
12868;BME280;33517;49.866;8.320;2023-07-13T06:45:40;100588.38;;;32.68;29.39
12868;BME280;33517;49.866;8.320;2023-07-13T06:48:33;100599.75;;;32.47;28.87
12868;BME280;33517;49.866;8.320;2023-07-13T06:51:26;100594.09;;;32.30;30.01
12868;BME280;33517;49.866;8.320;2023-07-13T06:54:18;100600.25;;;32.09;29.83
12868;BME280;33517;49.866;8.320;2023-07-13T06:57:10;100601.81;;;32.64;29.33
12868;BME280;33517;49.866;8.320;2023-07-13T07:00:02;100589.66;;;32.84;28.43
12868;BME280;33517;49.866;8.320;2023-07-13T07:02:54;100596.44;;;33.30;27.92
12868;BME280;33517;49.866;8.320;2023-07-13T07:05:47;100593.88;;;32.90;29.00
12868;BME280;33517;49.866;8.320;2023-07-13T07:08:39;100593.50;;;33.63;28.15
12868;BME280;33517;49.866;8.320;2023-07-13T07:11:31;100597.50;;;33.65;28.20
12868;BME280;33517;49.866;8.320;2023-07-13T07:14:23;100599.47;;;33.73;27.74
12868;BME280;33517;49.866;8.320;2023-07-13T07:17:15;100598.22;;;33.48;27.83
12868;BME280;33517;49.866;8.320;2023-07-13T07:20:07;100601.22;;;34.48;27.01
12868;BME280;33517;49.866;8.320;2023-07-13T07:23:01;100603.06;;;34.21;26.41
12868;BME280;33517;49.866;8.320;2023-07-13T07:25:53;100611.28;;;34.30;27.02
12868;BME280;33517;49.866;8.320;2023-07-13T07:28:45;100604.97;;;34.60;25.90
12868;BME280;33517;49.866;8.320;2023-07-13T07:31:36;100605.75;;;34.52;26.45
12868;BME280;33517;49.866;8.320;2023-07-13T07:34:29;100602.56;;;35.27;25.60
12868;BME280;33517;49.866;8.320;2023-07-13T07:37:21;100603.09;;;35.75;24.67
12868;BME280;33517;49.866;8.320;2023-07-13T07:40:15;100599.63;;;36.42;24.96
12868;BME280;33517;49.866;8.320;2023-07-13T07:43:07;100599.59;;;35.66;24.06
12868;BME280;33517;49.866;8.320;2023-07-13T07:45:59;100594.00;;;35.37;24.75
12868;BME280;33517;49.866;8.320;2023-07-13T07:48:51;100602.56;;;34.84;25.79
12868;BME280;33517;49.866;8.320;2023-07-13T07:51:43;100602.59;;;36.57;23.26
12868;BME280;33517;49.866;8.320;2023-07-13T07:54:34;100598.66;;;36.38;23.83
12868;BME280;33517;49.866;8.320;2023-07-13T07:57:28;100597.53;;;36.39;22.69
12868;BME280;33517;49.866;8.320;2023-07-13T08:00:20;100607.97;;;37.28;23.10
12868;BME280;33517;49.866;8.320;2023-07-13T08:03:12;100609.47;;;36.34;23.63
12868;BME280;33517;49.866;8.320;2023-07-13T08:06:04;100614.91;;;36.92;22.95
12868;BME280;33517;49.866;8.320;2023-07-13T08:08:56;100613.44;;;35.70;23.51
12868;BME280;33517;49.866;8.320;2023-07-13T08:11:47;100602.41;;;35.95;23.35
12868;BME280;33517;49.866;8.320;2023-07-13T08:14:41;100603.47;;;36.41;23.08
12868;BME280;33517;49.866;8.320;2023-07-13T08:17:32;100604.59;;;35.64;23.11
12868;BME280;33517;49.866;8.320;2023-07-13T08:20:24;100604.63;;;35.30;23.93
12868;BME280;33517;49.866;8.320;2023-07-13T08:23:17;100609.44;;;34.48;25.13
12868;BME280;33517;49.866;8.320;2023-07-13T08:26:09;100603.22;;;36.25;23.80
12868;BME280;33517;49.866;8.320;2023-07-13T08:29:01;100598.50;;;35.42;23.77
12868;BME280;33517;49.866;8.320;2023-07-13T08:31:55;100602.91;;;33.12;25.87
12868;BME280;33517;49.866;8.320;2023-07-13T08:34:47;100600.44;;;31.99;27.08
12868;BME280;33517;49.866;8.320;2023-07-13T08:37:39;100605.25;;;34.02;25.90
12868;BME280;33517;49.866;8.320;2023-07-13T08:40:31;100602.22;;;35.54;23.22
12868;BME280;33517;49.866;8.320;2023-07-13T08:43:26;100602.63;;;36.49;23.36
12868;BME280;33517;49.866;8.320;2023-07-13T08:46:24;100589.91;;;35.69;24.18
12868;BME280;33517;49.866;8.320;2023-07-13T08:49:21;100595.47;;;35.26;23.50
12868;BME280;33517;49.866;8.320;2023-07-13T08:52:21;100599.25;;;36.14;22.29
12868;BME280;33517;49.866;8.320;2023-07-13T08:55:21;100607.19;;;35.61;23.83
12868;BME280;33517;49.866;8.320;2023-07-13T08:58:15;100595.81;;;36.75;21.90
12868;BME280;33517;49.866;8.320;2023-07-13T09:01:13;100596.72;;;36.09;22.72
12868;BME280;33517;49.866;8.320;2023-07-13T09:04:13;100594.91;;;37.45;21.20
12868;BME280;33517;49.866;8.320;2023-07-13T09:07:19;100601.25;;;37.05;21.98
12868;BME280;33517;49.866;8.320;2023-07-13T09:10:15;100598.34;;;37.22;21.80
12868;BME280;33517;49.866;8.320;2023-07-13T09:13:20;100603.47;;;37.11;21.33
12868;BME280;33517;49.866;8.320;2023-07-13T09:16:15;100597.81;;;38.57;20.92
12868;BME280;33517;49.866;8.320;2023-07-13T09:19:11;100600.03;;;39.47;19.28
12868;BME280;33517;49.866;8.320;2023-07-13T09:22:13;100600.69;;;39.13;19.04
12868;BME280;33517;49.866;8.320;2023-07-13T09:25:29;100606.00;;;38.94;19.02
12868;BME280;33517;49.866;8.320;2023-07-13T09:28:24;100596.28;;;38.84;19.11
12868;BME280;33517;49.866;8.320;2023-07-13T09:31:23;100579.06;;;37.10;20.85
12868;BME280;33517;49.866;8.320;2023-07-13T09:34:16;100584.00;;;36.04;20.35
12868;BME280;33517;49.866;8.320;2023-07-13T09:37:10;100581.44;;;36.29;21.19
12868;BME280;33517;49.866;8.320;2023-07-13T09:40:03;100576.44;;;37.01;21.56
12868;BME280;33517;49.866;8.320;2023-07-13T09:42:58;100579.22;;;36.92;20.89
12868;BME280;33517;49.866;8.320;2023-07-13T09:45:49;100575.78;;;37.16;20.61
12868;BME280;33517;49.866;8.320;2023-07-13T09:48:42;100578.72;;;36.29;21.11
12868;BME280;33517;49.866;8.320;2023-07-13T09:51:34;100582.66;;;36.69;20.49
12868;BME280;33517;49.866;8.320;2023-07-13T09:54:27;100574.22;;;37.27;20.80
12868;BME280;33517;49.866;8.320;2023-07-13T09:57:23;100582.97;;;36.67;21.44
12868;BME280;33517;49.866;8.320;2023-07-13T10:00:21;100586.19;;;38.88;19.19
12868;BME280;33517;49.866;8.320;2023-07-13T10:03:18;100575.81;;;38.69;19.88
12868;BME280;33517;49.866;8.320;2023-07-13T10:06:14;100584.09;;;38.69;18.03
12868;BME280;33517;49.866;8.320;2023-07-13T10:09:07;100586.84;;;38.97;18.98
12868;BME280;33517;49.866;8.320;2023-07-13T10:12:00;100576.97;;;39.24;18.60
12868;BME280;33517;49.866;8.320;2023-07-13T10:14:54;100577.13;;;37.75;19.41
12868;BME280;33517;49.866;8.320;2023-07-13T10:17:47;100569.97;;;37.50;19.57
12868;BME280;33517;49.866;8.320;2023-07-13T10:20:39;100582.19;;;37.41;18.64
12868;BME280;33517;49.866;8.320;2023-07-13T10:23:32;100572.47;;;37.43;19.45
12868;BME280;33517;49.866;8.320;2023-07-13T10:26:29;100560.47;;;36.33;19.21
12868;BME280;33517;49.866;8.320;2023-07-13T10:29:26;100579.06;;;37.10;19.32
12868;BME280;33517;49.866;8.320;2023-07-13T10:32:19;100579.22;;;36.51;20.41
12868;BME280;33517;49.866;8.320;2023-07-13T10:35:15;100578.63;;;38.33;19.10
12868;BME280;33517;49.866;8.320;2023-07-13T10:38:11;100567.59;;;37.61;19.33
12868;BME280;33517;49.866;8.320;2023-07-13T10:41:07;100561.66;;;37.06;20.04
12868;BME280;33517;49.866;8.320;2023-07-13T10:44:00;100575.03;;;37.28;18.98
12868;BME280;33517;49.866;8.320;2023-07-13T10:46:58;100574.78;;;38.62;18.31
12868;BME280;33517;49.866;8.320;2023-07-13T10:49:53;100575.44;;;36.35;19.46
12868;BME280;33517;49.866;8.320;2023-07-13T10:52:47;100575.41;;;32.37;22.69
12868;BME280;33517;49.866;8.320;2023-07-13T10:55:54;100578.03;;;34.36;21.99
12868;BME280;33517;49.866;8.320;2023-07-13T10:59:01;100568.84;;;36.57;19.49
12868;BME280;33517;49.866;8.320;2023-07-13T11:01:58;100558.63;;;37.40;20.09
12868;BME280;33517;49.866;8.320;2023-07-13T11:04:53;100564.31;;;37.79;18.18
12868;BME280;33517;49.866;8.320;2023-07-13T11:07:54;100563.91;;;37.69;19.39
12868;BME280;33517;49.866;8.320;2023-07-13T11:10:52;100564.66;;;38.14;18.50
12868;BME280;33517;49.866;8.320;2023-07-13T11:13:58;100565.34;;;37.99;19.49
12868;BME280;33517;49.866;8.320;2023-07-13T11:16:53;100567.09;;;38.55;18.22
12868;BME280;33517;49.866;8.320;2023-07-13T11:19:51;100558.03;;;38.55;18.87
12868;BME280;33517;49.866;8.320;2023-07-13T11:22:46;100562.47;;;39.11;17.63
12868;BME280;33517;49.866;8.320;2023-07-13T11:25:39;100569.69;;;38.12;18.88
12868;BME280;33517;49.866;8.320;2023-07-13T11:28:31;100559.56;;;37.23;18.69
12868;BME280;33517;49.866;8.320;2023-07-13T11:31:24;100552.25;;;33.20;21.89
12868;BME280;33517;49.866;8.320;2023-07-13T11:34:21;100553.25;;;32.03;23.11
12868;BME280;33517;49.866;8.320;2023-07-13T11:37:17;100548.28;;;31.00;24.40
12868;BME280;33517;49.866;8.320;2023-07-13T11:40:13;100559.13;;;30.44;25.96
12868;BME280;33517;49.866;8.320;2023-07-13T11:43:06;100559.78;;;30.55;25.38
12868;BME280;33517;49.866;8.320;2023-07-13T11:45:58;100558.50;;;31.22;25.00
12868;BME280;33517;49.866;8.320;2023-07-13T11:48:51;100557.53;;;30.62;25.56
12868;BME280;33517;49.866;8.320;2023-07-13T11:51:44;100561.91;;;32.46;24.57
12868;BME280;33517;49.866;8.320;2023-07-13T11:54:46;100555.63;;;34.17;22.75
12868;BME280;33517;49.866;8.320;2023-07-13T11:57:44;100557.94;;;32.52;23.83
12868;BME280;33517;49.866;8.320;2023-07-13T12:00:37;100556.56;;;31.09;25.46
12868;BME280;33517;49.866;8.320;2023-07-13T12:03:32;100565.91;;;30.23;26.24
12868;BME280;33517;49.866;8.320;2023-07-13T12:06:27;100550.56;;;30.93;25.84
12868;BME280;33517;49.866;8.320;2023-07-13T12:09:20;100558.94;;;32.42;24.02
12868;BME280;33517;49.866;8.320;2023-07-13T12:12:22;100559.94;;;31.51;24.85
12868;BME280;33517;49.866;8.320;2023-07-13T12:15:14;100555.25;;;30.88;25.76
12868;BME280;33517;49.866;8.320;2023-07-13T12:18:12;100564.19;;;30.32;26.44
12868;BME280;33517;49.866;8.320;2023-07-13T12:21:05;100564.28;;;30.46;26.68
12868;BME280;33517;49.866;8.320;2023-07-13T12:23:58;100559.72;;;31.16;26.25
12868;BME280;33517;49.866;8.320;2023-07-13T12:26:54;100561.22;;;31.40;26.00
12868;BME280;33517;49.866;8.320;2023-07-13T12:29:51;100557.84;;;30.98;26.69
12868;BME280;33517;49.866;8.320;2023-07-13T12:32:55;100569.13;;;30.49;26.50
12868;BME280;33517;49.866;8.320;2023-07-13T12:35:49;100568.59;;;30.05;27.14
12868;BME280;33517;49.866;8.320;2023-07-13T12:38:45;100572.97;;;30.01;27.52
12868;BME280;33517;49.866;8.320;2023-07-13T12:41:37;100572.88;;;29.82;27.62
12868;BME280;33517;49.866;8.320;2023-07-13T12:44:30;100587.84;;;29.51;27.77
12868;BME280;33517;49.866;8.320;2023-07-13T12:47:24;100582.88;;;29.29;28.00
12868;BME280;33517;49.866;8.320;2023-07-13T12:50:18;100586.69;;;29.28;28.37
12868;BME280;33517;49.866;8.320;2023-07-13T12:53:13;100583.63;;;29.35;28.50
12868;BME280;33517;49.866;8.320;2023-07-13T12:56:05;100587.63;;;29.08;28.55
12868;BME280;33517;49.866;8.320;2023-07-13T12:58:59;100590.31;;;29.14;28.60
12868;BME280;33517;49.866;8.320;2023-07-13T13:01:53;100585.66;;;29.24;28.88
12868;BME280;33517;49.866;8.320;2023-07-13T13:04:47;100599.41;;;29.61;28.37
12868;BME280;33517;49.866;8.320;2023-07-13T13:07:39;100589.16;;;29.53;28.75
12868;BME280;33517;49.866;8.320;2023-07-13T13:10:31;100587.03;;;29.11;28.90
12868;BME280;33517;49.866;8.320;2023-07-13T13:13:23;100592.06;;;28.94;29.22
12868;BME280;33517;49.866;8.320;2023-07-13T13:16:20;100594.47;;;28.42;29.91
12868;BME280;33517;49.866;8.320;2023-07-13T13:19:14;100598.03;;;28.38;29.83
12868;BME280;33517;49.866;8.320;2023-07-13T13:22:08;100587.22;;;28.38;30.19
12868;BME280;33517;49.866;8.320;2023-07-13T13:25:00;100593.94;;;28.45;29.82
12868;BME280;33517;49.866;8.320;2023-07-13T13:27:52;100588.91;;;28.77;29.87
12868;BME280;33517;49.866;8.320;2023-07-13T13:30:44;100607.38;;;28.70;29.77
12868;BME280;33517;49.866;8.320;2023-07-13T13:33:37;100597.97;;;28.58;29.63
12868;BME280;33517;49.866;8.320;2023-07-13T13:36:33;100603.47;;;28.33;29.54
12868;BME280;33517;49.866;8.320;2023-07-13T13:39:31;100589.72;;;28.24;30.31
12868;BME280;33517;49.866;8.320;2023-07-13T13:42:25;100588.09;;;28.18;30.29
12868;BME280;33517;49.866;8.320;2023-07-13T13:45:17;100588.34;;;28.21;30.27
12868;BME280;33517;49.866;8.320;2023-07-13T13:48:15;100595.44;;;28.12;30.41
12868;BME280;33517;49.866;8.320;2023-07-13T13:51:15;100594.63;;;28.02;30.62
12868;BME280;33517;49.866;8.320;2023-07-13T13:54:10;100580.88;;;28.62;30.46
12868;BME280;33517;49.866;8.320;2023-07-13T13:57:05;100592.34;;;28.93;29.50
12868;BME280;33517;49.866;8.320;2023-07-13T13:59:57;100584.31;;;28.78;29.69
12868;BME280;33517;49.866;8.320;2023-07-13T14:02:49;100580.28;;;29.14;29.11
12868;BME280;33517;49.866;8.320;2023-07-13T14:05:42;100587.03;;;29.11;29.46
12868;BME280;33517;49.866;8.320;2023-07-13T14:08:34;100572.53;;;28.97;29.38
12868;BME280;33517;49.866;8.320;2023-07-13T14:11:26;100581.50;;;28.93;28.98
12868;BME280;33517;49.866;8.320;2023-07-13T14:14:22;100594.41;;;29.06;29.31
12868;BME280;33517;49.866;8.320;2023-07-13T14:17:19;100586.69;;;29.28;28.55
12868;BME280;33517;49.866;8.320;2023-07-13T14:20:13;100588.72;;;28.64;29.03
12868;BME280;33517;49.866;8.320;2023-07-13T14:23:06;100588.16;;;29.05;28.84
12868;BME280;33517;49.866;8.320;2023-07-13T14:25:57;100589.06;;;28.96;28.59
12868;BME280;33517;49.866;8.320;2023-07-13T14:28:51;100589.41;;;28.84;29.01
12868;BME280;33517;49.866;8.320;2023-07-13T14:31:45;100583.81;;;29.09;28.81
12868;BME280;33517;49.866;8.320;2023-07-13T14:34:37;100585.75;;;29.04;28.93
12868;BME280;33517;49.866;8.320;2023-07-13T14:37:29;100591.66;;;29.11;28.94
12868;BME280;33517;49.866;8.320;2023-07-13T14:40:25;100582.47;;;28.68;29.31
12868;BME280;33517;49.866;8.320;2023-07-13T14:43:17;100592.06;;;28.41;29.45
12868;BME280;33517;49.866;8.320;2023-07-13T14:46:21;100590.31;;;27.91;30.49
12868;BME280;33517;49.866;8.320;2023-07-13T14:49:24;100592.53;;;27.69;30.71
12868;BME280;33517;49.866;8.320;2023-07-13T14:52:19;100593.91;;;27.31;31.67
12868;BME280;33517;49.866;8.320;2023-07-13T14:55:13;100597.38;;;27.16;31.52
12868;BME280;33517;49.866;8.320;2023-07-13T14:58:06;100589.56;;;27.55;31.31
12868;BME280;33517;49.866;8.320;2023-07-13T15:00:58;100603.59;;;27.97;31.33
12868;BME280;33517;49.866;8.320;2023-07-13T15:03:51;100607.09;;;27.88;30.70
12868;BME280;33517;49.866;8.320;2023-07-13T15:06:59;100603.88;;;27.71;30.85
12868;BME280;33517;49.866;8.320;2023-07-13T15:09:52;100609.84;;;27.53;30.88
12868;BME280;33517;49.866;8.320;2023-07-13T15:12:44;100609.81;;;27.22;31.37